Terminal Aerodrome Forecast
Issued by NWS

Home | Current Version | Previous Version | Text Only | Print | Product List | Glossary On
Versions: 1 2 3 4 5 6 7 8 9 10 11 12 13 14
463
FTUS41 KLWX 221729
TAFMTN
TAF
KMTN 221729Z 2218/2318 13004KT P6SM SCT080
     FM230100 16006KT P6SM SCT200
     FM230600 17007KT P6SM -SHRA OVC090 WS020/20035KT
     FM230800 16009KT 2SM -SHRA OVC008 WS020/20040KT
     FM230900 16010KT 1SM -SHRA OVC003 WS020/19045KT
     FM231200 18014G24KT 1 1/2SM -SHRA OVC003
     FM231700 23010G22KT 2SM -SHRA BKN008=

USA.gov is the U.S. government's official web portal to all federal, state and local government web resources and services.